Autre station à proximité

 

CYBG - Bagotville(Can M, Quebec, Canada
Distance entre Chicoutimi et cette station: SSE 11km
Mise à jour: 30/05/2017 04:00
Nuageux
Nuageux
 Wind from E
Vent: E 19 km/h
Température: 10°C
Wind Chill: 7°C
Point de rosée: 8°C
Humidité: 88%
Baromètre: 1016.3 hPa
État du ciel: Nuageux
Visibilité: 40 km
État du ciel détaillé: Nuageux 1097 m
2017/05/30 08:00 CYBG 300800Z 09010KT 25SM OVC036 10/08 A3001 RMK SC8 SLP165
CYRJ - Roberval Airport, Quebec, Canada
Distance entre Chicoutimi et cette station: O 92km
Mise à jour: 30/05/2017 04:00
Nuageux
Nuageux
 Wind from ESE
Vent: ESE 7 km/h
Température: 11°C
Point de rosée: 10°C
Humidité: 94%
Baromètre: 1013.9 hPa
État du ciel: Nuageux
Visibilité: 32 km
État du ciel détaillé: Partiellement nuageux 610 m
Nuageux 1311 m
2017/05/30 08:00 CYRJ 300800Z 12004KT 20SM BKN020 OVC043 11/10 A2994 RMK SC7SC1 SLP145
 
CWJO - Jonquiere, Quebec, Canada
Distance entre Chicoutimi et cette station: O 9km
Mise à jour: 30/05/2017 04:00

 Wind from ESE
Vent: ESE 15 km/h, Rafale: 28 km/h
Température: 10°C
Wind Chill: 8°C
Point de rosée: 8°C
Humidité: 88%
2017/05/30 08:00 CWJO 300800Z AUTO 11008G15KT 10/08 RMK AO1 SLP167 T01020078 58005
CWXC - Onatchiway, Quebec, Canada
Distance entre Chicoutimi et cette station: N 50km
Mise à jour: 30/05/2017 04:00

 Wind from S
Vent: S 9 km/h
Température: 10°C
Wind Chill: 9°C
Point de rosée: 8°C
Humidité: 88%
2017/05/30 08:00 CWXC 300800Z AUTO 19005KT 10/08 RMK AO1 SLP146 T00950077 58005
 
CWIX - Mistook , Quebec, Canada
Distance entre Chicoutimi et cette station: ONO 55km
Mise à jour: 30/05/2017 04:00

 Wind from ESE
Vent: ESE 20 km/h
Température: 10°C
Wind Chill: 7°C
Point de rosée: 8°C
Humidité: 88%
2017/05/30 08:00 CWIX 300800Z AUTO 11011KT 10/08 RMK AO1 17 8006 SLP145 T01010075
CWQV - Pointe Claveau, Quebec, Canada
Distance entre Chicoutimi et cette station: ESE 69km
Mise à jour: 30/05/2017 04:00

 Wind from E
Vent: E 15 km/h
Température: 10°C
Wind Chill: 8°C
Point de rosée: 8°C
Humidité: 88%
2017/05/30 08:00 CWQV 300800Z AUTO 08008KT 10/08 RMK AO1 T00980082
 
CWPD - Parc Des Laurent, Quebec, Canada
Distance entre Chicoutimi et cette station: S 97km
Mise à jour: 30/05/2017 04:00

 Wind from SSO
Vent: SSO 4 km/h
Température: 7°C
Point de rosée: 6°C
Humidité: 93%
2017/05/30 08:00 CWPD 300800Z AUTO 20002KT 07/06 RMK AO1 SLP134 T00650062 56002
CWOD - Normandin, Quebec, Canada
Distance entre Chicoutimi et cette station: ONO 129km
Mise à jour: 30/05/2017 04:00

 Wind from SE
Vent: SE 20 km/h, Rafale: 30 km/h
Température: 10°C
Wind Chill: 7°C
Point de rosée: 10°C
Humidité: 100%
2017/05/30 08:00 CWOD 300800Z AUTO 13011G16KT 10/10 RMK AO1 SLP126 T01040097 56003
 
CWIS - Charlevoix (mrx), Quebec, Canada
Distance entre Chicoutimi et cette station: SSE 120km
Mise à jour: 30/05/2017 04:00

 Wind from SSE
Vent: SSE 7 km/h
Température: 6°C
Wind Chill: 4°C
Point de rosée: 6°C
Humidité: 100%
2017/05/30 08:00 CWIS 300800Z AUTO 16004KT 06/06 RMK AO1 SLP171 T00600057 58005